createdAt,value
2018-12-02T00:00:54.861Z,70.42
2018-12-02T00:03:24.173Z,71.36
2018-12-02T00:05:53.394Z,70.37
2018-12-02T00:08:22.622Z,70.98
2018-12-02T00:10:51.853Z,71.44
2018-12-02T00:13:21.008Z,70.96
2018-12-02T00:15:50.158Z,71.11
2018-12-02T00:18:19.186Z,70.99
2018-12-02T00:20:48.394Z,70.78
2018-12-02T00:23:17.398Z,70.31
2018-12-02T00:25:46.531Z,70.58
2018-12-02T00:28:15.806Z,70.94
2018-12-02T00:30:44.861Z,70.27
2018-12-02T00:33:13.942Z,70.01
2018-12-02T00:35:43.275Z,70.10
2018-12-02T00:38:12.290Z,70.94
2018-12-02T00:40:41.346Z,70.45
2018-12-02T00:43:10.882Z,70.41
2018-12-02T00:45:39.861Z,70.65
2018-12-02T00:48:10.022Z,70.92
2018-12-02T00:50:39.369Z,70.23
2018-12-02T00:53:14.878Z,70.56
2018-12-02T00:55:44.676Z,70.33
2018-12-02T00:58:13.693Z,70.52
2018-12-02T01:00:42.679Z,69.84
2018-12-02T01:03:13.020Z,70.68
2018-12-02T01:05:42.061Z,70.18
2018-12-02T01:08:11.465Z,70.36
2018-12-02T01:10:47.378Z,69.53
2018-12-02T01:13:16.474Z,69.91
2018-12-02T01:15:45.537Z,70.00
2018-12-02T01:18:14.567Z,69.87
2018-12-02T01:20:43.602Z,69.79
2018-12-02T01:23:13.173Z,70.30
2018-12-02T01:25:42.539Z,69.31
2018-12-02T01:28:11.562Z,69.56
2018-12-02T01:30:40.552Z,70.25
2018-12-02T01:33:16.299Z,70.03
2018-12-02T01:35:45.421Z,69.86
2018-12-02T01:38:14.703Z,69.78
2018-12-02T01:40:47.808Z,70.12
2018-12-02T01:43:16.846Z,69.21
2018-12-02T01:45:45.870Z,69.10
2018-12-02T01:48:14.906Z,69.25
2018-12-02T01:50:43.938Z,69.17
2018-12-02T01:53:13.305Z,69.24
2018-12-02T01:55:42.503Z,69.29
2018-12-02T01:58:11.914Z,69.01
2018-12-02T02:00:40.946Z,69.44
2018-12-02T02:03:10.052Z,69.12
2018-12-02T02:05:39.445Z,68.88
2018-12-02T02:08:08.532Z,69.26
2018-12-02T02:10:37.672Z,68.83
2018-12-02T02:13:06.822Z,68.44
2018-12-02T02:15:39.096Z,69.28
2018-12-02T02:18:08.198Z,68.52
2018-12-02T02:20:37.267Z,69.47
2018-12-02T02:23:06.687Z,68.26
2018-12-02T02:25:35.837Z,68.76
2018-12-02T02:28:04.911Z,69.07
2018-12-02T02:30:34.057Z,69.11
2018-12-02T02:33:03.798Z,69.44
2018-12-02T02:35:33.100Z,68.80
2018-12-02T02:38:02.653Z,69.07
2018-12-02T02:40:32.514Z,68.75
2018-12-02T02:43:02.922Z,69.00
2018-12-02T02:45:32.007Z,69.24
2018-12-02T02:48:01.084Z,69.65
2018-12-02T02:50:30.325Z,69.37
2018-12-02T02:53:00.710Z,69.37
2018-12-02T02:55:29.744Z,68.81
2018-12-02T02:57:58.769Z,68.50
2018-12-02T03:00:28.568Z,68.98
2018-12-02T03:02:57.622Z,68.86
2018-12-02T03:05:26.613Z,68.58
2018-12-02T03:07:55.582Z,68.71
2018-12-02T03:10:24.779Z,68.42
2018-12-02T03:12:54.524Z,68.98
2018-12-02T03:15:24.097Z,68.64
2018-12-02T03:17:53.122Z,69.48
2018-12-02T03:20:23.628Z,69.07
2018-12-02T03:22:53.950Z,72.46
2018-12-02T03:25:26.896Z,73.05
2018-12-02T03:28:02.344Z,70.84
2018-12-02T03:30:31.336Z,69.81
2018-12-02T03:33:00.592Z,69.02
2018-12-02T03:35:29.657Z,69.60
2018-12-02T03:37:58.951Z,69.11
2018-12-02T03:40:29.081Z,69.55
2018-12-02T03:42:59.217Z,68.37
2018-12-02T03:45:28.996Z,69.59
2018-12-02T03:47:59.161Z,69.60
2018-12-02T03:50:28.274Z,69.19
2018-12-02T03:52:57.399Z,68.52
2018-12-02T03:55:26.419Z,69.04
2018-12-02T03:57:55.435Z,69.09
2018-12-02T04:00:25.816Z,68.99
2018-12-02T04:02:56.119Z,69.13
2018-12-02T04:05:26.545Z,68.90
2018-12-02T04:07:55.715Z,68.78
2018-12-02T04:10:24.930Z,68.99
2018-12-02T04:12:54.110Z,68.67
2018-12-02T04:15:24.653Z,68.60
2018-12-02T04:17:53.877Z,69.02
2018-12-02T04:20:22.910Z,69.33
2018-12-02T04:22:52.986Z,68.35
2018-12-02T04:25:24.741Z,68.50
2018-12-02T04:27:53.789Z,69.43
2018-12-02T04:30:23.666Z,68.76
2018-12-02T04:32:53.724Z,69.54
2018-12-02T04:35:25.023Z,68.72
2018-12-02T04:37:54.050Z,68.63
2018-12-02T04:40:23.173Z,68.36
2018-12-02T04:42:52.288Z,68.07
2018-12-02T04:45:21.385Z,68.30
2018-12-02T04:47:50.945Z,68.10
2018-12-02T04:50:24.554Z,68.68
2018-12-02T04:52:53.885Z,68.39
2018-12-02T04:55:22.911Z,68.38
2018-12-02T04:57:52.078Z,68.90
2018-12-02T05:00:21.579Z,69.08
2018-12-02T05:02:52.910Z,68.66
2018-12-02T05:05:24.254Z,68.31
2018-12-02T05:07:53.903Z,69.53
2018-12-02T05:10:23.156Z,69.31
2018-12-02T05:12:52.348Z,68.80
2018-12-02T05:15:22.119Z,68.80
2018-12-02T05:17:51.096Z,69.03
2018-12-02T05:20:21.400Z,69.00
2018-12-02T05:22:50.554Z,69.32
2018-12-02T05:25:20.205Z,69.82
2018-12-02T05:27:49.089Z,68.55
2018-12-02T05:30:21.121Z,69.10
2018-12-02T05:32:53.482Z,69.03
2018-12-02T05:35:22.533Z,68.79
2018-12-02T05:37:51.660Z,68.78
2018-12-02T05:40:23.997Z,68.23
2018-12-02T05:42:54.156Z,67.74
2018-12-02T05:45:23.467Z,68.35
2018-12-02T05:47:52.601Z,68.56
2018-12-02T05:50:25.646Z,67.88
2018-12-02T05:52:58.234Z,68.24
2018-12-02T05:55:30.918Z,67.87
2018-12-02T05:57:59.896Z,68.05
2018-12-02T06:00:28.879Z,67.79
2018-12-02T06:02:57.948Z,68.14
2018-12-02T06:05:26.981Z,67.42
2018-12-02T06:07:56.123Z,67.88
2018-12-02T06:10:25.141Z,67.89
2018-12-02T06:12:54.195Z,68.07
2018-12-02T06:15:23.542Z,70.67
2018-12-02T06:17:52.527Z,69.91
2018-12-02T06:20:24.236Z,68.03
2018-12-02T06:22:55.527Z,67.29
2018-12-02T06:25:24.512Z,67.13
2018-12-02T06:27:53.667Z,66.41
2018-12-02T06:30:26.841Z,66.22
2018-12-02T06:32:59.992Z,65.83
2018-12-02T06:35:29.043Z,65.86
2018-12-02T06:37:59.544Z,65.78
2018-12-02T06:40:29.743Z,65.67
2018-12-02T06:42:58.764Z,65.51
2018-12-02T06:45:27.768Z,65.45
2018-12-02T06:47:56.759Z,65.52
2018-12-02T06:50:27.447Z,65.09
2018-12-02T06:52:57.759Z,65.38
2018-12-02T06:55:32.076Z,65.16
2018-12-02T06:58:09.576Z,65.55
2018-12-02T07:02:52.987Z,65.30
2018-12-02T07:05:25.295Z,64.96
2018-12-02T07:07:54.509Z,64.72
2018-12-02T07:10:23.518Z,65.06
2018-12-02T07:12:52.563Z,64.70
2018-12-02T07:15:21.672Z,64.73
2018-12-02T07:17:50.693Z,64.67
2018-12-02T07:20:19.736Z,64.82
2018-12-02T07:22:49.072Z,64.62
2018-12-02T07:25:18.256Z,63.71
2018-12-02T07:27:47.244Z,65.63
2018-12-02T07:30:16.244Z,65.05
2018-12-02T07:32:45.232Z,64.91
2018-12-02T07:35:15.124Z,64.72
2018-12-02T07:37:49.416Z,64.69
2018-12-02T07:40:37.203Z,64.32
2018-12-02T07:43:10.351Z,64.08
2018-12-02T07:45:39.402Z,63.89
2018-12-02T07:48:08.874Z,64.75
2018-12-02T07:50:37.962Z,64.49
2018-12-02T07:53:07.196Z,64.16
2018-12-02T07:55:36.252Z,63.92
2018-12-02T07:58:06.399Z,63.77
2018-12-02T08:00:35.429Z,64.72
2018-12-02T08:03:04.518Z,63.68
2018-12-02T08:05:33.816Z,64.11
2018-12-02T08:08:02.884Z,63.90
2018-12-02T08:10:31.926Z,63.81
2018-12-02T08:13:01.034Z,64.08
2018-12-02T08:15:30.378Z,64.26
2018-12-02T08:17:59.915Z,64.90
2018-12-02T08:20:28.966Z,64.12
2018-12-02T08:22:57.955Z,63.88
2018-12-02T08:25:27.029Z,64.12
2018-12-02T08:27:56.093Z,63.47
2018-12-02T08:30:26.519Z,63.60
2018-12-02T08:32:56.256Z,63.46
2018-12-02T08:35:27.549Z,63.12
2018-12-02T08:37:58.861Z,63.27
2018-12-02T08:40:27.955Z,63.23
2018-12-02T08:42:56.999Z,63.38
2018-12-02T08:45:26.021Z,63.14
2018-12-02T08:47:55.106Z,62.58
2018-12-02T08:50:24.175Z,64.24
2018-12-02T08:52:53.611Z,63.99
2018-12-02T08:55:23.221Z,63.24
2018-12-02T08:57:53.792Z,63.30
2018-12-02T09:00:23.561Z,63.19
2018-12-02T09:02:58.775Z,63.47
2018-12-02T09:05:28.032Z,62.57
2018-12-02T09:07:59.450Z,63.26
2018-12-02T09:10:29.752Z,62.85
2018-12-02T09:13:00.685Z,62.32
2018-12-02T09:15:29.692Z,62.48
2018-12-02T09:17:58.876Z,62.40
2018-12-02T09:20:29.679Z,62.20
2018-12-02T09:22:58.685Z,62.03
2018-12-02T09:25:28.297Z,62.20
2018-12-02T09:27:57.381Z,62.92
2018-12-02T09:30:28.949Z,62.58
2018-12-02T09:32:58.480Z,62.17
2018-12-02T09:35:29.038Z,61.91
2018-12-02T09:37:58.100Z,62.27
2018-12-02T09:40:27.115Z,62.86
2018-12-02T09:42:56.642Z,62.17
2018-12-02T09:45:28.844Z,62.51
2018-12-02T09:47:59.716Z,62.42
2018-12-02T09:50:28.816Z,61.89
2018-12-02T09:52:59.115Z,62.31
2018-12-02T09:55:40.088Z,62.71
2018-12-02T09:58:24.020Z,62.37
2018-12-02T10:00:53.717Z,62.20
2018-12-02T10:03:22.951Z,62.14
2018-12-02T10:05:52.339Z,62.15
2018-12-02T10:08:21.402Z,62.43
2018-12-02T10:10:50.970Z,62.99
2018-12-02T10:13:22.422Z,62.51
2018-12-02T10:15:51.505Z,62.22
2018-12-02T10:18:20.699Z,61.91
2018-12-02T10:20:49.841Z,62.33
2018-12-02T10:23:18.898Z,62.42
2018-12-02T10:25:48.176Z,62.23
2018-12-02T10:28:17.307Z,62.45
2018-12-02T10:30:46.632Z,62.86
2018-12-02T10:33:15.722Z,62.09
2018-12-02T10:35:45.211Z,62.08
2018-12-02T10:38:14.357Z,62.51
2018-12-02T10:40:43.687Z,62.20
2018-12-02T10:43:12.780Z,62.39
2018-12-02T10:45:41.803Z,61.99
2018-12-02T10:48:12.310Z,61.92
2018-12-02T10:50:41.432Z,62.96
2018-12-02T10:53:15.862Z,62.51
2018-12-02T10:55:48.912Z,62.17
2018-12-02T10:58:21.607Z,62.66
2018-12-02T11:00:57.728Z,62.58
2018-12-02T11:03:26.745Z,62.74
2018-12-02T11:05:55.750Z,62.53
2018-12-02T11:08:24.740Z,62.62
2018-12-02T11:10:53.715Z,62.42
2018-12-02T11:13:22.740Z,62.93
2018-12-02T11:15:51.737Z,62.12
2018-12-02T11:18:20.780Z,62.04
2018-12-02T11:20:49.783Z,62.96
2018-12-02T11:23:18.966Z,62.19
2018-12-02T11:25:47.958Z,62.69
2018-12-02T11:28:17.083Z,62.62
2018-12-02T11:30:46.197Z,63.86
2018-12-02T11:33:15.229Z,64.97
2018-12-02T11:35:44.230Z,63.37
2018-12-02T11:38:13.267Z,63.63
2018-12-02T11:40:43.267Z,64.00
2018-12-02T11:43:12.272Z,63.19
2018-12-02T11:45:41.872Z,63.11
2018-12-02T11:48:10.977Z,63.80
2018-12-02T11:50:40.309Z,63.18
2018-12-02T11:53:09.348Z,63.41
2018-12-02T11:55:38.332Z,63.91
2018-12-02T11:58:07.587Z,63.41
2018-12-02T12:00:38.979Z,63.50
2018-12-02T12:03:07.926Z,62.35
2018-12-02T12:05:37.847Z,62.69
2018-12-02T12:08:09.826Z,62.27
2018-12-02T12:10:38.959Z,63.18
2018-12-02T12:13:08.167Z,63.49
2018-12-02T12:15:37.715Z,63.61
2018-12-02T12:18:09.468Z,63.59
2018-12-02T12:20:43.914Z,63.73
2018-12-02T12:23:16.422Z,63.90
2018-12-02T12:25:45.732Z,63.28
2018-12-02T12:28:14.782Z,63.80
2018-12-02T12:30:43.948Z,65.32
2018-12-02T12:33:13.419Z,64.28
2018-12-02T12:35:46.437Z,64.33
2018-12-02T12:38:15.445Z,65.84
2018-12-02T12:40:45.444Z,65.64
2018-12-02T12:43:29.710Z,65.93
2018-12-02T12:45:59.744Z,65.95
2018-12-02T12:48:28.696Z,66.13
2018-12-02T12:50:57.701Z,67.03
2018-12-02T12:53:26.854Z,66.50
2018-12-02T12:55:55.831Z,67.65
2018-12-02T12:58:24.852Z,67.37
2018-12-02T13:00:53.864Z,67.84
2018-12-02T13:03:22.950Z,67.90
2018-12-02T13:05:52.223Z,67.59
2018-12-02T13:08:21.272Z,67.23
2018-12-02T13:10:50.286Z,67.45
2018-12-02T13:13:19.327Z,67.85
2018-12-02T13:15:48.340Z,67.92
2018-12-02T13:18:17.458Z,67.97
2018-12-02T13:20:56.079Z,68.29
2018-12-02T13:23:26.234Z,68.58
2018-12-02T13:25:55.300Z,68.91
2018-12-02T13:28:24.364Z,68.68
2018-12-02T13:30:53.483Z,69.01
2018-12-02T13:33:22.484Z,69.67
2018-12-02T13:35:51.765Z,69.43
2018-12-02T13:38:20.850Z,68.94
2018-12-02T13:40:50.099Z,68.67
2018-12-02T13:43:22.491Z,68.99
2018-12-02T13:45:51.943Z,68.60
2018-12-02T13:48:21.334Z,68.59
2018-12-02T13:50:50.334Z,68.12
2018-12-02T13:53:20.287Z,68.11
2018-12-02T13:55:49.625Z,68.07
2018-12-02T13:58:21.551Z,68.15
2018-12-02T14:00:50.632Z,68.50
2018-12-02T14:03:19.624Z,68.24
2018-12-02T14:05:49.522Z,68.23
2018-12-02T14:08:19.072Z,68.45
2018-12-02T14:10:48.184Z,68.12
2018-12-02T14:13:27.844Z,68.69
2018-12-02T14:16:28.939Z,68.90
2018-12-02T14:19:00.441Z,68.49
2018-12-02T14:21:29.465Z,68.85
2018-12-02T14:24:00.976Z,69.09
2018-12-02T14:26:29.955Z,69.09
2018-12-02T14:29:11.894Z,68.89
2018-12-02T14:31:44.687Z,69.59
2018-12-02T14:34:13.680Z,69.58
2018-12-02T14:36:52.270Z,69.76
2018-12-02T14:39:21.278Z,70.05
2018-12-02T14:41:50.353Z,70.50
2018-12-02T14:44:22.231Z,70.31
2018-12-02T14:46:51.328Z,70.38
2018-12-02T14:49:20.369Z,71.29
2018-12-02T14:51:49.399Z,71.67
2018-12-02T14:54:18.462Z,71.06
2018-12-02T14:56:47.538Z,71.99
2018-12-02T14:59:16.650Z,71.74
2018-12-02T15:01:45.809Z,72.24
2018-12-02T15:04:14.949Z,71.62
2018-12-02T15:06:43.927Z,72.12
2018-12-02T15:09:12.905Z,71.59
2018-12-02T15:11:41.954Z,72.78
2018-12-02T15:14:12.165Z,72.16
2018-12-02T15:16:41.682Z,72.23
2018-12-02T15:19:13.061Z,72.52
2018-12-02T15:21:42.747Z,72.06
2018-12-02T15:24:12.512Z,72.79
2018-12-02T15:26:42.011Z,72.85
2018-12-02T15:29:11.070Z,73.61
2018-12-02T15:31:40.230Z,72.79
2018-12-02T15:34:09.300Z,73.17
2018-12-02T15:36:38.302Z,72.87
2018-12-02T15:39:10.471Z,73.44
2018-12-02T15:41:39.626Z,73.97
2018-12-02T15:44:08.736Z,73.56
2018-12-02T15:46:37.889Z,73.17
2018-12-02T15:49:06.913Z,73.51
2018-12-02T15:51:36.316Z,72.87
2018-12-02T15:54:05.708Z,73.44
2018-12-02T15:56:34.828Z,73.86
2018-12-02T15:59:08.230Z,73.33
2018-12-02T16:01:38.542Z,72.99
2018-12-02T16:04:07.801Z,74.60
2018-12-02T16:06:37.837Z,73.61
2018-12-02T16:09:10.197Z,73.75
2018-12-02T16:11:40.836Z,73.52
2018-12-02T16:14:09.941Z,73.89
2018-12-02T16:16:40.841Z,74.15
2018-12-02T16:19:09.903Z,73.75
2018-12-02T16:21:39.226Z,73.77
2018-12-02T16:24:08.479Z,73.46
2018-12-02T16:26:37.590Z,74.17
2018-12-02T16:29:06.706Z,73.87
2018-12-02T16:31:35.880Z,74.25
2018-12-02T16:34:05.072Z,74.21
2018-12-02T16:36:34.062Z,73.98
2018-12-02T16:39:03.222Z,74.35
2018-12-02T16:41:32.203Z,74.47
2018-12-02T16:44:01.196Z,74.15
2018-12-02T16:46:30.184Z,74.25
2018-12-02T16:48:59.590Z,74.97
2018-12-02T16:51:28.575Z,74.54
2018-12-02T16:53:57.760Z,74.73
2018-12-02T16:56:26.975Z,74.69
2018-12-02T16:59:13.209Z,75.21
2018-12-02T17:01:46.684Z,74.89
2018-12-02T17:04:16.380Z,74.90
2018-12-02T17:06:45.536Z,74.49
2018-12-02T17:09:14.652Z,74.70
2018-12-02T17:11:44.388Z,75.29
2018-12-02T17:14:13.635Z,75.10
2018-12-02T17:16:42.715Z,75.16
2018-12-02T17:19:12.570Z,75.26
2018-12-02T17:21:42.721Z,74.68
2018-12-02T17:24:12.637Z,75.56
2018-12-02T17:26:41.612Z,75.09
2018-12-02T17:29:13.569Z,74.79
2018-12-02T17:31:46.510Z,75.88
2018-12-02T17:34:15.587Z,75.34
2018-12-02T17:36:45.047Z,75.28
2018-12-02T17:39:19.197Z,75.60
2018-12-02T17:41:52.581Z,75.40
2018-12-02T17:44:21.693Z,75.17
2018-12-02T17:46:50.659Z,75.46
2018-12-02T17:49:19.789Z,75.39
2018-12-02T17:51:48.820Z,75.47
2018-12-02T17:54:17.905Z,76.25
2018-12-02T17:56:46.912Z,75.84
2018-12-02T17:59:15.984Z,75.87
2018-12-02T18:01:45.257Z,75.63
2018-12-02T18:04:14.305Z,76.17
2018-12-02T18:06:43.425Z,76.28
2018-12-02T18:09:14.338Z,75.72
2018-12-02T18:11:43.403Z,75.61
2018-12-02T18:14:12.593Z,75.64
2018-12-02T18:16:41.887Z,76.13
2018-12-02T18:19:10.902Z,76.68
2018-12-02T18:21:40.154Z,76.50
2018-12-02T18:24:09.226Z,75.99
2018-12-02T18:26:44.995Z,76.12
2018-12-02T18:29:14.114Z,76.36
2018-12-02T18:31:43.144Z,76.66
2018-12-02T18:34:13.232Z,77.15
2018-12-02T18:36:42.607Z,76.69
2018-12-02T18:39:15.104Z,76.40
2018-12-02T18:41:49.332Z,75.79
2018-12-02T18:44:18.589Z,76.26
2018-12-02T18:46:48.051Z,77.12
2018-12-02T18:49:17.102Z,77.77
2018-12-02T18:51:46.185Z,76.20
2018-12-02T18:54:15.282Z,76.84
2018-12-02T18:56:44.401Z,76.77
2018-12-02T18:59:13.379Z,75.97
2018-12-02T19:01:42.417Z,76.82
2018-12-02T19:04:11.453Z,75.98
2018-12-02T19:06:40.558Z,76.44
2018-12-02T19:09:12.324Z,76.36
2018-12-02T19:11:42.406Z,76.84
2018-12-02T19:14:11.590Z,76.82
2018-12-02T19:16:40.808Z,76.55
2018-12-02T19:19:10.182Z,76.87
2018-12-02T19:21:39.391Z,77.20
2018-12-02T19:24:09.357Z,78.05
2018-12-02T19:26:38.697Z,76.58
2018-12-02T19:29:08.429Z,76.51
2018-12-02T19:31:37.637Z,76.70
2018-12-02T19:34:07.991Z,77.18
2018-12-02T19:36:50.316Z,77.31
2018-12-02T19:39:19.657Z,77.14
2018-12-02T19:41:48.684Z,78.52
2018-12-02T19:44:17.783Z,82.34
2018-12-02T19:46:46.937Z,81.27
2018-12-02T19:49:16.073Z,79.83
2018-12-02T19:51:45.096Z,82.05
2018-12-02T19:54:14.123Z,78.58
2018-12-02T19:56:43.215Z,77.19
2018-12-02T19:59:12.268Z,77.83
2018-12-02T20:01:41.317Z,81.87
2018-12-02T20:04:10.582Z,79.58
2018-12-02T20:06:39.630Z,78.04
2018-12-02T20:09:10.693Z,77.72
2018-12-02T20:11:39.761Z,78.95
2018-12-02T20:14:09.103Z,81.84
2018-12-02T20:16:38.298Z,83.04
2018-12-02T20:19:13.049Z,82.66
2018-12-02T20:21:42.135Z,79.02
2018-12-02T20:26:46.710Z,80.65
2018-12-02T20:29:15.847Z,79.29
2018-12-02T20:31:45.215Z,82.94
2018-12-02T20:34:14.360Z,79.34
2018-12-02T20:36:43.713Z,80.14
2018-12-02T20:39:12.831Z,78.07
2018-12-02T20:41:41.905Z,79.20
2018-12-02T20:44:11.200Z,80.80
2018-12-02T20:46:40.249Z,78.75
2018-12-02T20:49:09.304Z,78.93
2018-12-02T20:51:38.396Z,79.22
2018-12-02T20:54:07.783Z,79.36
2018-12-02T20:56:36.849Z,79.87
2018-12-02T20:59:07.347Z,78.58
2018-12-02T21:01:36.577Z,79.60
2018-12-02T21:04:09.667Z,77.83
2018-12-02T21:06:39.005Z,77.83
2018-12-02T21:09:08.541Z,77.81
2018-12-02T21:11:40.528Z,77.73
2018-12-02T21:14:07.037Z,77.73
2018-12-02T21:16:36.133Z,78.27
2018-12-02T21:19:05.567Z,79.32
2018-12-02T21:21:37.076Z,77.62
2018-12-02T21:24:03.802Z,77.65
2018-12-02T21:26:32.826Z,78.33
2018-12-02T21:29:01.839Z,78.97
2018-12-02T21:31:31.019Z,78.27
2018-12-02T21:34:00.041Z,77.98
2018-12-02T21:36:29.122Z,78.03
2018-12-02T21:38:58.348Z,78.21
2018-12-02T21:41:27.359Z,77.74
2018-12-02T21:43:56.650Z,78.90
2018-12-02T21:46:25.855Z,78.31
2018-12-02T21:48:54.864Z,79.88
2018-12-02T21:51:23.882Z,79.01
2018-12-02T21:53:53.002Z,77.75
2018-12-02T21:56:22.088Z,78.33
2018-12-02T21:58:51.096Z,78.42
2018-12-02T22:01:20.088Z,79.38
2018-12-02T22:03:49.184Z,78.43
2018-12-02T22:06:18.203Z,79.42
2018-12-02T22:08:47.464Z,77.85
2018-12-02T22:11:16.564Z,77.94
2018-12-02T22:13:45.562Z,78.16
2018-12-02T22:16:14.798Z,79.26
2018-12-02T22:18:43.823Z,80.32
2018-12-02T22:21:13.050Z,78.76
2018-12-02T22:23:42.087Z,78.30
2018-12-02T22:26:12.021Z,78.17
2018-12-02T22:28:41.180Z,78.09
2018-12-02T22:31:10.562Z,78.14
2018-12-02T22:33:39.579Z,78.17
2018-12-02T22:36:13.984Z,78.92
2018-12-02T22:38:38.072Z,80.12
2018-12-02T22:41:07.785Z,79.70
2018-12-02T22:43:36.839Z,78.39
2018-12-02T22:46:06.757Z,79.18
2018-12-02T22:48:36.047Z,78.74
2018-12-02T22:51:05.283Z,79.61
2018-12-02T22:53:34.637Z,78.71
2018-12-02T22:56:03.649Z,79.93
2018-12-02T22:58:32.904Z,78.72
2018-12-02T23:01:07.555Z,78.91
2018-12-02T23:03:36.822Z,78.52
2018-12-02T23:06:06.425Z,78.61
2018-12-02T23:08:35.961Z,78.47
2018-12-02T23:11:04.933Z,78.40
2018-12-02T23:13:34.485Z,78.81
2018-12-02T23:16:03.516Z,78.67
2018-12-02T23:18:32.580Z,78.78
2018-12-02T23:21:01.590Z,78.91
2018-12-02T23:23:30.708Z,78.98
2018-12-02T23:25:59.710Z,78.87
2018-12-02T23:28:28.683Z,78.52
2018-12-02T23:30:58.301Z,79.08
2018-12-02T23:33:28.112Z,81.19
2018-12-02T23:35:57.811Z,79.76
2018-12-02T23:38:27.516Z,79.46
2018-12-02T23:40:56.543Z,80.67
2018-12-02T23:43:25.553Z,79.48
2018-12-02T23:45:54.564Z,80.91
2018-12-02T23:48:23.824Z,79.66
2018-12-02T23:50:53.071Z,80.00
2018-12-02T23:53:22.085Z,78.85
2018-12-02T23:55:51.082Z,78.44
2018-12-02T23:58:20.328Z,78.79
